aviador You're here:

SANR Decoded Metar

in
Report Time2017-08-21 13:00:00
UTC Time2017-08-21 13:43:55
Flight Rules vfr VFR
Wind020° at 20 kt
W.Decomp.*RWY 01: 19.7 kt HW 3.5 kt RCW
W.Rank020° ranks 10
Current wind is above 020° avg. (9.8)
Visibility9999 m
Phenomena:N/A
Clouds:N/A
Expected CloudBase > 6,400 ft AGL from Temp-Dew spread
CeilingNone
Temp16°C
Dew Point00°C (34% RH)
AAT6.8°C
QNH1025 hPa
Raw Report
METAR SANR 211300Z 02020KT CAVOK 16/M00 Q1025=

Extra information for SANR:More info

Social comments